createdAt,value
2018-10-19T00:02:15.220Z,13.17
2018-10-19T00:06:19.919Z,12.97
2018-10-19T00:10:24.302Z,13.03
2018-10-19T00:14:28.639Z,13.40
2018-10-19T00:18:33.183Z,12.93
2018-10-19T00:22:37.613Z,15.03
2018-10-19T00:26:41.820Z,13.63
2018-10-19T00:30:47.217Z,13.30
2018-10-19T00:34:51.421Z,12.63
2018-10-19T00:38:55.931Z,12.90
2018-10-19T00:43:00.214Z,13.37
2018-10-19T00:47:04.522Z,13.70
2018-10-19T00:51:09.004Z,13.67
2018-10-19T00:55:13.188Z,11.70
2018-10-19T00:59:17.550Z,13.40
2018-10-19T01:03:21.794Z,12.30
2018-10-19T01:07:26.095Z,14.67
2018-10-19T01:11:30.304Z,12.50
2018-10-19T01:15:34.541Z,13.13
2018-10-19T01:19:38.886Z,14.97
2018-10-19T01:23:43.077Z,11.90
2018-10-19T01:27:47.429Z,13.07
2018-10-19T01:31:51.742Z,13.27
2018-10-19T01:35:56.133Z,14.53
2018-10-19T01:40:00.326Z,14.10
2018-10-19T01:44:04.718Z,14.97
2018-10-19T01:48:08.949Z,11.87
2018-10-19T01:52:13.247Z,14.70
2018-10-19T01:56:17.451Z,14.00
2018-10-19T02:00:21.795Z,13.03
2018-10-19T02:04:25.969Z,13.60
2018-10-19T02:08:30.254Z,11.63
2018-10-19T02:12:34.457Z,12.57
2018-10-19T02:16:38.799Z,13.20
2018-10-19T02:20:43.244Z,13.33
2018-10-19T02:24:47.773Z,14.00
2018-10-19T02:28:52.019Z,12.57
2018-10-19T02:32:56.584Z,10.20
2018-10-19T02:37:00.825Z,12.83
2018-10-19T02:41:05.640Z,13.03
2018-10-19T02:45:10.819Z,10.50
2018-10-19T02:49:15.134Z,13.17
2018-10-19T02:53:19.401Z,13.27
2018-10-19T02:57:23.702Z,13.30
2018-10-19T03:01:27.979Z,13.07
2018-10-19T03:05:32.383Z,15.07
2018-10-19T03:09:36.578Z,12.13
2018-10-19T03:14:43.739Z,11.17
2018-10-19T03:18:48.216Z,13.53
2018-10-19T03:22:52.606Z,15.03
2018-10-19T03:26:57.106Z,11.93
2018-10-19T03:31:01.475Z,14.10
2018-10-19T03:35:06.470Z,13.00
2018-10-19T03:39:11.098Z,13.70
2018-10-19T03:43:15.547Z,12.30
2018-10-19T03:47:19.915Z,12.83
2018-10-19T03:51:24.153Z,13.67
2018-10-19T03:55:28.465Z,13.13
2018-10-19T03:59:32.937Z,16.00
2018-10-19T04:03:37.243Z,13.10
2018-10-19T04:07:41.568Z,13.20
2018-10-19T04:11:45.841Z,11.90
2018-10-19T04:15:50.128Z,12.67
2018-10-19T04:19:54.589Z,12.30
2018-10-19T04:23:58.812Z,12.00
2018-10-19T04:28:03.301Z,12.07
2018-10-19T04:32:07.609Z,12.67
2018-10-19T04:36:11.869Z,14.23
2018-10-19T04:40:21.683Z,15.00
2018-10-19T04:44:26.306Z,12.27
2018-10-19T04:48:30.673Z,14.23
2018-10-19T04:52:34.950Z,17.57
2018-10-19T04:56:39.249Z,13.80
2018-10-19T05:00:43.451Z,13.60
2018-10-19T05:04:47.998Z,12.47
2018-10-19T05:08:52.164Z,14.20
2018-10-19T05:12:57.314Z,15.00
2018-10-19T05:17:01.746Z,14.57
2018-10-19T05:21:06.070Z,13.60
2018-10-19T05:25:12.555Z,11.30
2018-10-19T05:29:16.797Z,16.20
2018-10-19T05:33:21.306Z,13.40
2018-10-19T05:37:25.535Z,12.10
2018-10-19T05:41:29.879Z,14.07
2018-10-19T05:45:34.064Z,14.30
2018-10-19T05:49:38.421Z,13.97
2018-10-19T05:53:43.517Z,13.97
2018-10-19T05:57:48.461Z,15.40
2018-10-19T06:01:52.779Z,14.50
2018-10-19T06:05:57.067Z,14.30
2018-10-19T06:10:01.298Z,13.33
2018-10-19T06:14:05.874Z,14.90
2018-10-19T06:18:10.114Z,16.70
2018-10-19T06:22:14.483Z,13.33
2018-10-19T06:26:18.825Z,19.30
2018-10-19T06:30:23.231Z,13.03
2018-10-19T06:34:27.548Z,14.47
2018-10-19T06:38:32.136Z,14.53
2018-10-19T06:42:36.385Z,16.13
2018-10-19T06:46:40.619Z,15.07
2018-10-19T06:50:44.853Z,18.57
2018-10-19T06:54:49.194Z,15.73
2018-10-19T06:58:53.449Z,15.20
2018-10-19T07:02:57.635Z,14.47
2018-10-19T07:07:03.015Z,12.67
2018-10-19T07:11:07.360Z,16.10
2018-10-19T07:15:11.913Z,17.57
2018-10-19T07:19:16.157Z,16.10
2018-10-19T07:23:20.365Z,16.80
2018-10-19T07:27:24.839Z,17.00
2018-10-19T07:31:29.098Z,15.67
2018-10-19T07:35:33.437Z,17.10
2018-10-19T07:39:37.815Z,17.73
2018-10-19T07:43:42.004Z,16.00
2018-10-19T07:47:46.606Z,14.50
2018-10-19T07:51:50.949Z,15.17
2018-10-19T07:55:55.261Z,16.50
2018-10-19T08:00:01.322Z,12.73
2018-10-19T08:04:05.799Z,15.00
2018-10-19T08:08:10.134Z,14.50
2018-10-19T08:12:14.578Z,13.93
2018-10-19T08:16:18.854Z,14.80
2018-10-19T08:20:27.957Z,14.53
2018-10-19T08:24:32.306Z,13.27
2018-10-19T08:28:36.725Z,13.10
2018-10-19T08:32:40.986Z,14.00
2018-10-19T08:36:45.258Z,12.33
2018-10-19T08:40:49.547Z,13.95
2018-10-19T08:44:53.777Z,12.27
2018-10-19T08:48:58.041Z,12.30
2018-10-19T08:53:02.452Z,11.40
2018-10-19T08:57:07.286Z,13.40
2018-10-19T09:01:11.749Z,12.70
2018-10-19T09:05:16.061Z,13.77
2018-10-19T09:09:20.435Z,11.80
2018-10-19T09:13:24.682Z,12.43
2018-10-19T09:17:29.176Z,12.97
2018-10-19T09:21:33.468Z,12.90
2018-10-19T09:25:37.778Z,13.53
2018-10-19T09:29:42.067Z,11.67
2018-10-19T09:33:46.326Z,11.63
2018-10-19T09:37:50.664Z,12.30
2018-10-19T09:41:55.051Z,12.00
2018-10-19T09:45:59.276Z,11.07
2018-10-19T09:50:03.759Z,10.90
2018-10-19T09:54:08.468Z,10.67
2018-10-19T09:58:12.981Z,10.90
2018-10-19T10:02:17.508Z,10.43
2018-10-19T10:06:21.993Z,11.53
2018-10-19T10:10:26.897Z,11.60
2018-10-19T10:14:31.149Z,11.27
2018-10-19T10:18:35.906Z,9.63
2018-10-19T10:22:40.066Z,9.80
2018-10-19T10:26:44.439Z,10.07
2018-10-19T10:30:48.797Z,11.30
2018-10-19T10:34:53.263Z,12.43
2018-10-19T10:38:57.522Z,10.70
2018-10-19T10:43:01.955Z,12.60
2018-10-19T10:47:06.863Z,11.00
2018-10-19T10:51:11.340Z,12.10
2018-10-19T10:55:15.614Z,10.80
2018-10-19T10:59:20.216Z,12.27
2018-10-19T11:03:24.445Z,11.70
2018-10-19T11:07:28.788Z,12.30
2018-10-19T11:11:33.023Z,13.30
2018-10-19T11:15:37.270Z,11.97
2018-10-19T11:19:41.857Z,11.70
2018-10-19T11:23:46.081Z,11.43
2018-10-19T11:27:50.365Z,13.20
2018-10-19T11:31:54.620Z,10.50
2018-10-19T11:35:58.948Z,10.47
2018-10-19T11:40:20.792Z,10.57
2018-10-19T11:44:25.116Z,9.37
2018-10-19T11:48:29.441Z,10.17
2018-10-19T11:52:33.774Z,9.27
2018-10-19T11:56:38.076Z,9.37
2018-10-19T12:00:42.357Z,10.33
2018-10-19T12:04:46.779Z,10.80
2018-10-19T12:08:51.093Z,10.80
2018-10-19T12:12:56.517Z,9.30
2018-10-19T12:17:01.025Z,9.78
2018-10-19T12:21:05.838Z,9.97
2018-10-19T12:25:11.364Z,10.30
2018-10-19T12:29:15.688Z,9.80
2018-10-19T12:33:25.288Z,10.30
2018-10-19T12:37:29.731Z,10.17
2018-10-19T12:41:34.121Z,9.43
2018-10-19T12:46:47.993Z,9.83
2018-10-19T12:50:52.244Z,9.67
2018-10-19T12:54:56.533Z,10.17
2018-10-19T12:59:01.155Z,10.23
2018-10-19T13:03:05.478Z,9.40
2018-10-19T13:07:10.268Z,10.03
2018-10-19T13:11:14.474Z,9.23
2018-10-19T13:15:18.763Z,9.73
2018-10-19T13:19:23.451Z,10.10
2018-10-19T13:23:27.721Z,9.07
2018-10-19T13:27:31.960Z,10.67
2018-10-19T13:31:36.892Z,9.23
2018-10-19T13:35:41.231Z,10.10
2018-10-19T13:39:45.439Z,9.63
2018-10-19T13:43:49.752Z,10.53
2018-10-19T13:47:53.983Z,9.80
2018-10-19T13:51:58.303Z,9.30
2018-10-19T13:56:02.644Z,10.57
2018-10-19T14:00:07.373Z,9.10
2018-10-19T14:04:11.770Z,9.87
2018-10-19T14:08:16.117Z,9.98
2018-10-19T14:12:20.519Z,11.10
2018-10-19T14:16:24.796Z,11.35
2018-10-19T14:20:29.261Z,10.10
2018-10-19T14:24:33.522Z,10.40
2018-10-19T14:28:37.856Z,10.10
2018-10-19T14:32:42.585Z,10.30
2018-10-19T14:36:47.104Z,10.10
2018-10-19T14:40:51.440Z,10.70
2018-10-19T14:44:55.710Z,10.23
2018-10-19T14:49:00.066Z,10.60
2018-10-19T14:53:04.584Z,10.07
2018-10-19T14:57:09.110Z,10.27
2018-10-19T15:01:13.396Z,10.03
2018-10-19T15:05:18.877Z,9.60
2018-10-19T15:09:23.537Z,8.97
2018-10-19T15:13:27.824Z,10.67
2018-10-19T15:17:32.070Z,10.03
2018-10-19T15:21:36.727Z,8.30
2018-10-19T15:25:40.938Z,9.73
2018-10-19T15:29:45.635Z,11.80
2018-10-19T15:33:49.921Z,9.40
2018-10-19T15:37:54.158Z,10.00
2018-10-19T15:41:58.411Z,9.90
2018-10-19T15:46:02.815Z,9.07
2018-10-19T15:50:08.003Z,11.03
2018-10-19T15:54:12.474Z,14.28
2018-10-19T15:58:16.683Z,11.70
2018-10-19T16:02:22.125Z,11.27
2018-10-19T16:06:26.370Z,9.07
2018-10-19T16:10:30.862Z,11.43
2018-10-19T16:14:35.178Z,11.17
2018-10-19T16:18:39.485Z,10.83
2018-10-19T16:22:43.820Z,12.47
2018-10-19T16:26:49.230Z,14.40
2018-10-19T16:30:53.949Z,11.97
2018-10-19T16:34:58.307Z,11.63
2018-10-19T16:39:03.100Z,11.00
2018-10-19T16:43:07.289Z,13.07
2018-10-19T16:47:11.672Z,12.40
2018-10-19T16:51:15.967Z,10.80
2018-10-19T16:55:20.217Z,12.00
2018-10-19T16:59:24.622Z,10.10
2018-10-19T17:03:28.909Z,15.20
2018-10-19T17:07:33.178Z,13.20
2018-10-19T17:11:38.165Z,12.30
2018-10-19T17:15:42.395Z,14.20
2018-10-19T17:19:46.701Z,15.30
2018-10-19T17:23:50.969Z,12.23
2018-10-19T17:27:55.372Z,13.10
2018-10-19T17:31:59.625Z,13.10
2018-10-19T17:36:04.035Z,21.00
2018-10-19T17:40:09.720Z,13.43
2018-10-19T17:44:14.000Z,15.90
2018-10-19T17:48:18.380Z,12.30
2018-10-19T17:52:22.713Z,13.63
2018-10-19T17:56:26.973Z,14.27
2018-10-19T18:00:31.469Z,13.23
2018-10-19T18:04:35.733Z,14.80
2018-10-19T18:08:40.198Z,12.83
2018-10-19T18:12:44.650Z,14.97
2018-10-19T18:16:48.888Z,12.83
2018-10-19T18:20:53.256Z,14.20
2018-10-19T18:24:57.504Z,14.40
2018-10-19T18:29:02.218Z,14.37
2018-10-19T18:33:07.418Z,14.37
2018-10-19T18:37:12.468Z,17.92
2018-10-19T18:41:16.937Z,13.90
2018-10-19T18:45:21.372Z,12.47
2018-10-19T18:49:25.810Z,13.57
2018-10-19T18:53:29.988Z,13.23
2018-10-19T18:57:34.326Z,13.83
2018-10-19T19:01:38.651Z,15.20
2018-10-19T19:05:43.145Z,14.70
2018-10-19T19:09:52.645Z,13.63
2018-10-19T19:13:57.043Z,15.17
2018-10-19T19:18:03.540Z,13.50
2018-10-19T19:22:07.755Z,16.13
2018-10-19T19:26:13.572Z,16.47
2018-10-19T19:30:17.877Z,13.97
2018-10-19T19:34:36.616Z,15.90
2018-10-19T19:38:40.810Z,16.27
2018-10-19T19:42:49.185Z,12.30
2018-10-19T19:46:53.437Z,13.50
2018-10-19T19:50:57.682Z,17.93
2018-10-19T19:55:02.065Z,14.30
2018-10-19T19:59:06.442Z,15.57
2018-10-19T20:03:10.732Z,15.33
2018-10-19T20:07:15.191Z,15.80
2018-10-19T20:11:20.098Z,13.50
2018-10-19T20:15:24.440Z,13.00
2018-10-19T20:19:28.669Z,17.00
2018-10-19T20:23:32.908Z,14.40
2018-10-19T20:27:37.770Z,15.93
2018-10-19T20:31:42.565Z,16.17
2018-10-19T20:35:46.778Z,15.03
2018-10-19T20:39:51.415Z,14.30
2018-10-19T20:43:58.149Z,14.87
2018-10-19T20:48:02.425Z,16.00
2018-10-19T20:52:06.944Z,14.67
2018-10-19T20:56:11.335Z,17.47
2018-10-19T21:00:15.676Z,16.20
2018-10-19T21:04:20.233Z,14.53
2018-10-19T21:08:24.609Z,15.87
2018-10-19T21:12:29.285Z,17.43
2018-10-19T21:16:33.699Z,18.23
2018-10-19T21:20:38.100Z,12.17
2018-10-19T21:24:42.866Z,15.47
2018-10-19T21:28:47.169Z,16.03
2018-10-19T21:32:51.489Z,13.53
2018-10-19T21:36:55.813Z,12.67
2018-10-19T21:41:00.185Z,11.80
2018-10-19T21:45:04.762Z,12.30
2018-10-19T21:49:09.809Z,15.53
2018-10-19T21:53:14.133Z,15.43
2018-10-19T21:57:18.518Z,14.47
2018-10-19T22:01:22.923Z,15.83
2018-10-19T22:05:27.138Z,13.53
2018-10-19T22:09:31.398Z,16.40
2018-10-19T22:13:35.679Z,13.77
2018-10-19T22:17:39.878Z,13.03
2018-10-19T22:21:44.220Z,14.20
2018-10-19T22:25:48.467Z,14.00
2018-10-19T22:29:52.796Z,13.67
2018-10-19T22:33:57.022Z,14.97
2018-10-19T22:38:01.666Z,15.53
2018-10-19T22:42:06.125Z,12.87
2018-10-19T22:46:10.439Z,13.23
2018-10-19T22:50:14.721Z,13.80
2018-10-19T22:54:18.985Z,15.87
2018-10-19T22:58:23.306Z,12.00
2018-10-19T23:02:27.641Z,14.90
2018-10-19T23:06:32.073Z,14.57
2018-10-19T23:10:36.279Z,15.37
2018-10-19T23:14:40.760Z,14.17
2018-10-19T23:18:45.038Z,15.60
2018-10-19T23:22:52.835Z,14.23
2018-10-19T23:26:57.031Z,15.33
2018-10-19T23:31:01.543Z,12.17
2018-10-19T23:35:06.843Z,15.03
2018-10-19T23:39:12.490Z,12.70
2018-10-19T23:43:16.853Z,15.30
2018-10-19T23:47:21.092Z,11.47
2018-10-19T23:51:25.308Z,14.57
2018-10-19T23:55:29.794Z,13.77
2018-10-19T23:59:33.955Z,11.20
